createdAt,value
2022-12-01T00:01:38.035Z,6.00
2022-12-01T00:04:06.408Z,5.90
2022-12-01T00:06:34.521Z,6.10
2022-12-01T00:09:20.556Z,6.20
2022-12-01T00:11:49.029Z,6.30
2022-12-01T00:14:18.518Z,6.50
2022-12-01T00:16:46.716Z,6.60
2022-12-01T00:19:14.977Z,6.40
2022-12-01T00:21:43.161Z,6.30
2022-12-01T00:24:12.729Z,6.10
2022-12-01T00:26:40.797Z,6.00
2022-12-01T00:29:10.587Z,5.90
2022-12-01T00:31:40.046Z,5.80
2022-12-01T00:34:11.494Z,5.60
2022-12-01T00:36:40.466Z,5.40
2022-12-01T00:39:08.791Z,5.30
2022-12-01T00:41:36.926Z,5.30
2022-12-01T00:44:05.600Z,5.30
2022-12-01T00:46:33.836Z,5.30
2022-12-01T00:49:03.312Z,5.30
2022-12-01T00:51:31.366Z,5.30
2022-12-01T00:53:59.512Z,5.10
2022-12-01T00:56:27.632Z,5.00
2022-12-01T00:58:55.675Z,5.00
2022-12-01T01:01:24.331Z,5.00
2022-12-01T01:03:52.530Z,5.00
2022-12-01T01:06:22.315Z,5.00
2022-12-01T01:08:50.741Z,5.10
2022-12-01T01:11:18.998Z,5.00
2022-12-01T01:13:47.298Z,5.10
2022-12-01T01:16:18.602Z,5.10
2022-12-01T01:18:46.993Z,5.00
2022-12-01T01:21:17.940Z,5.00
2022-12-01T01:23:47.626Z,5.00
2022-12-01T01:26:17.937Z,5.00
2022-12-01T01:28:46.253Z,5.00
2022-12-01T01:31:16.461Z,5.00
2022-12-01T01:33:45.197Z,5.00
2022-12-01T01:36:16.305Z,5.00
2022-12-01T01:38:45.015Z,5.10
2022-12-01T01:41:15.575Z,5.00
2022-12-01T01:43:46.698Z,5.00
2022-12-01T01:46:17.208Z,5.00
2022-12-01T01:48:47.684Z,5.00
2022-12-01T01:51:20.696Z,5.00
2022-12-01T01:53:53.367Z,5.00
2022-12-01T01:56:23.661Z,4.80
2022-12-01T01:58:53.641Z,4.90
2022-12-01T02:01:21.882Z,4.90
2022-12-01T02:03:52.587Z,5.00
2022-12-01T02:06:23.152Z,5.00
2022-12-01T02:08:51.350Z,4.90
2022-12-01T02:11:57.174Z,5.10
2022-12-01T02:14:59.879Z,5.10
2022-12-01T02:17:41.568Z,5.00
2022-12-01T02:20:36.870Z,5.20
2022-12-01T02:23:25.651Z,5.40
2022-12-01T02:26:07.959Z,5.60
2022-12-01T02:29:06.310Z,5.50
2022-12-01T02:31:44.223Z,5.50
2022-12-01T02:34:19.462Z,5.60
2022-12-01T02:36:52.198Z,5.50
2022-12-01T02:39:29.553Z,5.60
2022-12-01T02:42:07.918Z,5.50
2022-12-01T02:44:41.369Z,5.30
2022-12-01T02:47:15.219Z,5.50
2022-12-01T02:49:47.995Z,5.40
2022-12-01T02:52:18.191Z,5.50
2022-12-01T02:54:49.741Z,5.50
2022-12-01T02:57:18.676Z,5.40
2022-12-01T02:59:52.075Z,5.10
2022-12-01T03:02:29.683Z,5.10
2022-12-01T03:05:05.103Z,5.00
2022-12-01T03:07:55.577Z,5.10
2022-12-01T03:10:27.691Z,5.00
2022-12-01T03:13:08.201Z,4.90
2022-12-01T03:15:40.016Z,4.80
2022-12-01T03:18:18.981Z,5.00
2022-12-01T03:20:52.259Z,5.10
2022-12-01T03:23:24.534Z,5.40
2022-12-01T03:25:55.701Z,5.60
2022-12-01T03:28:29.774Z,5.60
2022-12-01T03:31:03.077Z,5.70
2022-12-01T03:33:36.128Z,5.80
2022-12-01T03:36:10.287Z,5.70
2022-12-01T03:38:38.834Z,5.80
2022-12-01T03:41:11.663Z,5.80
2022-12-01T03:43:45.207Z,5.60
2022-12-01T03:46:19.379Z,5.40
2022-12-01T03:48:49.173Z,5.60
2022-12-01T03:51:22.283Z,5.60
2022-12-01T03:53:56.517Z,5.20
2022-12-01T03:56:28.586Z,4.90
2022-12-01T03:59:00.235Z,4.60
2022-12-01T04:01:32.732Z,4.50
2022-12-01T04:04:07.464Z,4.40
2022-12-01T04:06:35.906Z,4.40
2022-12-01T04:09:04.132Z,4.60
2022-12-01T04:11:49.791Z,4.80
2022-12-01T04:14:17.930Z,4.80
2022-12-01T04:16:46.065Z,4.70
2022-12-01T04:19:15.802Z,4.50
2022-12-01T04:21:43.938Z,4.40
2022-12-01T04:24:13.821Z,4.40
2022-12-01T04:26:42.861Z,4.50
2022-12-01T04:29:12.097Z,4.40
2022-12-01T04:31:41.140Z,4.40
2022-12-01T04:34:10.913Z,4.40
2022-12-01T04:36:40.526Z,4.40
2022-12-01T04:39:08.651Z,4.50
2022-12-01T04:41:36.762Z,4.40
2022-12-01T04:44:05.059Z,4.40
2022-12-01T04:46:33.421Z,4.40
2022-12-01T04:49:01.577Z,4.50
2022-12-01T04:51:29.740Z,4.90
2022-12-01T04:53:59.498Z,4.90
2022-12-01T04:56:27.668Z,4.50
2022-12-01T04:58:55.979Z,4.60
2022-12-01T05:01:24.222Z,4.60
2022-12-01T05:03:52.573Z,4.60
2022-12-01T05:06:22.724Z,4.60
2022-12-01T05:08:51.685Z,4.50
2022-12-01T05:11:21.249Z,4.50
2022-12-01T05:13:50.651Z,4.60
2022-12-01T05:16:20.669Z,4.60
2022-12-01T05:18:50.627Z,4.50
2022-12-01T05:21:18.690Z,4.30
2022-12-01T05:23:46.867Z,4.30
2022-12-01T05:26:15.526Z,4.30
2022-12-01T05:28:47.278Z,4.40
2022-12-01T05:31:15.380Z,4.30
2022-12-01T05:33:43.526Z,4.30
2022-12-01T05:36:11.887Z,4.60
2022-12-01T05:38:40.007Z,4.50
2022-12-01T05:41:08.290Z,4.30
2022-12-01T05:43:36.493Z,4.60
2022-12-01T05:46:06.596Z,4.60
2022-12-01T05:48:34.989Z,4.80
2022-12-01T05:51:09.618Z,4.60
2022-12-01T05:53:37.834Z,4.30
2022-12-01T05:56:06.678Z,4.10
2022-12-01T05:58:35.082Z,3.90
2022-12-01T06:01:03.821Z,4.00
2022-12-01T06:03:33.341Z,4.00
2022-12-01T06:06:01.435Z,3.90
2022-12-01T06:08:29.654Z,3.90
2022-12-01T06:10:57.942Z,3.80
2022-12-01T06:13:26.037Z,3.80
2022-12-01T06:15:58.825Z,3.70
2022-12-01T06:18:27.851Z,3.70
2022-12-01T06:20:57.330Z,3.80
2022-12-01T06:23:30.173Z,3.80
2022-12-01T06:25:58.825Z,3.90
2022-12-01T06:28:27.231Z,3.80
2022-12-01T06:31:01.032Z,3.80
2022-12-01T06:33:31.495Z,3.80
2022-12-01T06:36:02.361Z,3.80
2022-12-01T06:38:33.026Z,3.90
2022-12-01T06:41:01.588Z,4.00
2022-12-01T06:43:30.302Z,4.10
2022-12-01T06:46:02.153Z,4.10
2022-12-01T06:48:31.384Z,4.20
2022-12-01T06:51:01.619Z,4.10
2022-12-01T06:53:29.862Z,3.90
2022-12-01T06:56:01.037Z,3.90
2022-12-01T06:58:29.723Z,4.00
2022-12-01T07:00:58.877Z,3.90
2022-12-01T07:03:27.282Z,3.90
2022-12-01T07:06:00.042Z,4.10
2022-12-01T07:08:30.609Z,4.30
2022-12-01T07:10:59.984Z,4.30
2022-12-01T07:13:33.014Z,4.30
2022-12-01T07:16:01.776Z,4.20
2022-12-01T07:18:30.092Z,4.10
2022-12-01T07:21:01.088Z,4.00
2022-12-01T07:23:31.219Z,3.90
2022-12-01T07:26:00.553Z,3.90
2022-12-01T07:28:29.088Z,3.90
2022-12-01T07:31:02.921Z,4.00
2022-12-01T07:33:31.685Z,3.90
2022-12-01T07:36:00.427Z,3.90
2022-12-01T07:38:30.566Z,4.00
2022-12-01T07:41:03.338Z,3.90
2022-12-01T07:43:32.430Z,3.90
2022-12-01T07:46:06.532Z,4.10
2022-12-01T07:48:34.816Z,4.10
2022-12-01T07:51:03.129Z,4.20
2022-12-01T07:53:33.122Z,4.20
2022-12-01T07:56:05.683Z,4.30
2022-12-01T07:58:36.983Z,4.40
2022-12-01T08:01:08.014Z,4.40
2022-12-01T08:03:36.411Z,4.50
2022-12-01T08:06:05.683Z,4.50
2022-12-01T08:08:37.051Z,4.50
2022-12-01T08:11:06.993Z,4.40
2022-12-01T08:13:35.481Z,4.50
2022-12-01T08:16:05.283Z,4.30
2022-12-01T08:18:35.946Z,4.30
2022-12-01T08:21:04.258Z,4.30
2022-12-01T08:23:32.445Z,4.20
2022-12-01T08:26:04.141Z,4.30
2022-12-01T08:28:32.432Z,4.30
2022-12-01T08:31:00.649Z,4.30
2022-12-01T08:33:30.360Z,4.30
2022-12-01T08:36:02.140Z,4.30
2022-12-01T08:38:30.380Z,4.20
2022-12-01T08:41:03.068Z,4.20
2022-12-01T08:44:01.711Z,4.20
2022-12-01T08:46:19.682Z,4.10
2022-12-01T08:48:47.966Z,4.30
2022-12-01T08:51:17.785Z,4.40
2022-12-01T08:53:47.755Z,4.30
2022-12-01T08:56:20.178Z,4.30
2022-12-01T08:58:48.703Z,4.10
2022-12-01T09:01:17.922Z,4.00
2022-12-01T09:03:46.324Z,4.00
2022-12-01T09:06:16.595Z,4.00
2022-12-01T09:08:45.414Z,3.90
2022-12-01T09:11:16.896Z,4.00
2022-12-01T09:13:51.362Z,4.00
2022-12-01T09:16:22.765Z,4.00
2022-12-01T09:18:50.970Z,4.10
2022-12-01T09:21:22.562Z,4.10
2022-12-01T09:23:51.506Z,4.10
2022-12-01T09:26:22.185Z,4.10
2022-12-01T09:28:54.850Z,4.10
2022-12-01T09:31:24.417Z,4.30
2022-12-01T09:33:57.002Z,4.30
2022-12-01T09:36:25.357Z,4.20
2022-12-01T09:38:53.498Z,4.20
2022-12-01T09:41:26.254Z,4.20
2022-12-01T09:44:00.921Z,4.20
2022-12-01T09:46:33.765Z,4.30
2022-12-01T09:49:03.925Z,4.30
2022-12-01T09:51:36.132Z,4.40
2022-12-01T09:54:05.152Z,4.40
2022-12-01T09:56:42.296Z,4.60
2022-12-01T09:59:18.848Z,4.40
2022-12-01T10:01:51.244Z,4.40
2022-12-01T10:04:23.842Z,4.50
2022-12-01T10:06:56.892Z,4.40
2022-12-01T10:09:30.826Z,4.40
2022-12-01T10:12:07.455Z,4.20
2022-12-01T10:14:37.615Z,4.30
2022-12-01T10:17:16.831Z,4.40
2022-12-01T10:19:58.088Z,4.40
2022-12-01T10:22:47.822Z,4.30
2022-12-01T10:25:22.848Z,4.30
2022-12-01T10:28:07.854Z,4.30
2022-12-01T10:30:40.618Z,4.40
2022-12-01T10:33:20.917Z,4.40
2022-12-01T10:35:49.069Z,4.40
2022-12-01T10:38:26.379Z,4.50
2022-12-01T10:40:55.512Z,4.50
2022-12-01T10:43:31.099Z,4.50
2022-12-01T10:46:01.458Z,4.40
2022-12-01T10:48:30.047Z,4.40
2022-12-01T10:51:16.179Z,4.40
2022-12-01T10:53:44.474Z,4.30
2022-12-01T10:56:16.177Z,4.30
2022-12-01T10:58:48.657Z,4.30
2022-12-01T11:01:23.522Z,4.30
2022-12-01T11:03:54.471Z,4.40
2022-12-01T11:06:26.207Z,4.40
2022-12-01T11:08:57.715Z,4.40
2022-12-01T11:11:30.064Z,4.30
2022-12-01T11:14:02.657Z,4.20
2022-12-01T11:16:43.447Z,4.30
2022-12-01T11:19:26.951Z,4.30
2022-12-01T11:21:58.031Z,4.20
2022-12-01T11:24:33.648Z,4.30
2022-12-01T11:27:02.394Z,4.20
2022-12-01T11:29:38.901Z,4.20
2022-12-01T11:32:19.243Z,4.20
2022-12-01T11:34:53.105Z,4.20
2022-12-01T11:37:23.863Z,4.30
2022-12-01T11:39:53.223Z,4.50
2022-12-01T11:42:26.904Z,4.30
2022-12-01T11:44:58.646Z,4.20
2022-12-01T11:47:28.411Z,4.20
2022-12-01T11:49:58.937Z,4.30
2022-12-01T11:52:31.252Z,4.20
2022-12-01T11:55:09.703Z,4.20
2022-12-01T11:57:40.438Z,4.20
2022-12-01T12:00:16.762Z,4.30
2022-12-01T12:03:03.884Z,4.40
2022-12-01T12:05:46.372Z,4.40
2022-12-01T12:08:27.434Z,4.40
2022-12-01T12:11:04.061Z,4.40
2022-12-01T12:13:53.856Z,4.30
2022-12-01T12:16:33.691Z,4.40
2022-12-01T12:19:18.205Z,4.40
2022-12-01T12:22:06.705Z,4.40
2022-12-01T12:24:49.951Z,4.40
2022-12-01T12:27:30.827Z,4.60
2022-12-01T12:30:17.184Z,4.60
2022-12-01T12:33:11.018Z,4.80
2022-12-01T12:35:45.486Z,4.70
2022-12-01T12:38:30.683Z,4.70
2022-12-01T12:41:09.522Z,4.70
2022-12-01T12:43:44.273Z,4.50
2022-12-01T12:46:14.394Z,4.50
2022-12-01T12:51:52.091Z,4.50
2022-12-01T12:54:27.603Z,4.50
2022-12-01T12:57:00.169Z,4.40
2022-12-01T12:59:35.303Z,4.30
2022-12-01T13:02:11.597Z,4.30
2022-12-01T13:04:46.559Z,4.30
2022-12-01T13:07:29.521Z,4.30
2022-12-01T13:10:03.235Z,4.30
2022-12-01T13:12:33.386Z,4.30
2022-12-01T13:15:07.523Z,4.40
2022-12-01T13:17:39.418Z,4.40
2022-12-01T13:20:16.030Z,4.40
2022-12-01T13:22:45.718Z,4.40
2022-12-01T13:25:15.438Z,4.50
2022-12-01T13:27:45.458Z,4.40
2022-12-01T13:30:21.838Z,4.40
2022-12-01T13:32:50.806Z,4.30
2022-12-01T13:35:30.253Z,4.40
2022-12-01T13:38:20.547Z,4.40
2022-12-01T13:40:49.634Z,4.40
2022-12-01T13:43:20.566Z,4.40
2022-12-01T13:45:50.525Z,4.40
2022-12-01T13:48:30.252Z,4.40
2022-12-01T13:51:01.908Z,4.30
2022-12-01T13:53:35.562Z,4.30
2022-12-01T13:56:27.349Z,4.40
2022-12-01T13:58:56.243Z,4.40
2022-12-01T14:01:48.512Z,4.40
2022-12-01T14:04:29.010Z,4.30
2022-12-01T14:07:28.600Z,4.40
2022-12-01T14:10:07.521Z,4.30
2022-12-01T14:12:37.967Z,4.20
2022-12-01T14:15:29.765Z,4.30
2022-12-01T14:18:04.202Z,4.40
2022-12-01T14:20:35.305Z,4.30
2022-12-01T14:23:16.349Z,4.30
2022-12-01T14:25:57.483Z,4.40
2022-12-01T14:29:09.052Z,4.30
2022-12-01T14:32:20.386Z,4.40
2022-12-01T14:34:56.479Z,4.40
2022-12-01T14:37:27.253Z,4.40
2022-12-01T14:40:04.446Z,4.50
2022-12-01T14:42:53.175Z,4.70
2022-12-01T14:45:25.557Z,4.60
2022-12-01T14:48:00.731Z,4.50
2022-12-01T14:50:35.448Z,4.30
2022-12-01T14:53:14.671Z,4.30
2022-12-01T14:55:50.231Z,4.30
2022-12-01T14:58:21.589Z,4.40
2022-12-01T15:00:58.567Z,4.30
2022-12-01T15:03:39.632Z,4.20
2022-12-01T15:06:08.622Z,4.30
2022-12-01T15:09:10.375Z,4.30
2022-12-01T15:11:50.969Z,4.40
2022-12-01T15:14:25.125Z,4.40
2022-12-01T15:16:53.723Z,4.30
2022-12-01T15:19:30.897Z,4.40
2022-12-01T15:22:00.270Z,4.30
2022-12-01T15:24:31.113Z,4.30
2022-12-01T15:27:04.000Z,4.30
2022-12-01T15:29:34.124Z,4.30
2022-12-01T15:32:06.090Z,4.40
2022-12-01T15:34:37.101Z,4.30
2022-12-01T15:37:08.495Z,4.30
2022-12-01T15:39:38.237Z,4.40
2022-12-01T15:42:08.489Z,4.50
2022-12-01T15:44:37.991Z,4.40
2022-12-01T15:47:31.295Z,4.50
2022-12-01T15:49:59.481Z,4.60
2022-12-01T15:52:27.622Z,4.50
2022-12-01T15:54:56.001Z,4.30
2022-12-01T15:57:26.150Z,4.40
2022-12-01T15:59:57.759Z,4.40
2022-12-01T16:02:29.608Z,4.40
2022-12-01T16:05:15.563Z,4.50
2022-12-01T16:08:12.054Z,4.50
2022-12-01T16:10:35.239Z,4.40
2022-12-01T16:13:40.471Z,4.30
2022-12-01T16:16:29.557Z,4.30
2022-12-01T16:18:59.222Z,4.20
2022-12-01T16:21:28.527Z,4.20
2022-12-01T16:24:04.884Z,4.20
2022-12-01T16:26:34.986Z,4.20
2022-12-01T16:29:04.785Z,4.20
2022-12-01T16:31:33.503Z,4.10
2022-12-01T16:34:13.905Z,4.10
2022-12-01T16:36:47.334Z,4.20
2022-12-01T16:39:15.808Z,4.20
2022-12-01T16:41:46.751Z,4.20
2022-12-01T16:44:32.147Z,4.20
2022-12-01T16:47:00.350Z,4.10
2022-12-01T16:49:28.632Z,4.10
2022-12-01T16:51:57.586Z,4.10
2022-12-01T16:54:28.434Z,4.20
2022-12-01T16:56:56.512Z,4.20
2022-12-01T16:59:26.250Z,4.20
2022-12-01T17:01:54.501Z,4.20
2022-12-01T17:04:22.861Z,4.30
2022-12-01T17:06:51.925Z,4.20
2022-12-01T17:09:20.289Z,4.30
2022-12-01T17:11:48.386Z,4.20
2022-12-01T17:14:16.474Z,4.20
2022-12-01T17:16:46.021Z,4.20
2022-12-01T17:19:14.230Z,4.30
2022-12-01T17:21:43.741Z,4.20
2022-12-01T17:24:16.141Z,4.30
2022-12-01T17:26:47.055Z,4.60
2022-12-01T17:29:15.241Z,4.50
2022-12-01T17:31:43.411Z,4.50
2022-12-01T17:34:12.918Z,4.60
2022-12-01T17:36:41.733Z,4.60
2022-12-01T17:39:09.927Z,4.50
2022-12-01T17:41:38.203Z,4.50
2022-12-01T17:44:07.050Z,4.70
2022-12-01T17:46:35.341Z,4.70
2022-12-01T17:49:08.580Z,4.80
2022-12-01T17:51:38.505Z,4.70
2022-12-01T17:54:07.144Z,4.50
2022-12-01T17:56:35.941Z,4.40
2022-12-01T17:59:04.557Z,4.40
2022-12-01T18:01:32.789Z,4.20
2022-12-01T18:04:01.019Z,4.10
2022-12-01T18:06:29.480Z,4.10
2022-12-01T18:09:00.570Z,4.20
2022-12-01T18:11:29.120Z,4.20
2022-12-01T18:13:58.171Z,4.20
2022-12-01T18:16:29.090Z,4.30
2022-12-01T18:18:58.778Z,4.30
2022-12-01T18:21:27.265Z,4.40
2022-12-01T18:23:58.131Z,4.50
2022-12-01T18:26:29.619Z,4.50
2022-12-01T18:28:59.655Z,4.50
2022-12-01T18:31:29.603Z,4.50
2022-12-01T18:34:02.595Z,4.50
2022-12-01T18:36:32.411Z,4.60
2022-12-01T18:39:01.832Z,4.40
2022-12-01T18:41:31.933Z,4.50
2022-12-01T18:44:00.092Z,4.40
2022-12-01T18:46:28.650Z,4.40
2022-12-01T18:49:01.918Z,4.40
2022-12-01T18:51:31.115Z,4.50
2022-12-01T18:54:01.411Z,4.80
2022-12-01T18:56:31.495Z,4.90
2022-12-01T18:59:01.847Z,5.00
2022-12-01T19:01:34.242Z,5.10
2022-12-01T19:04:03.545Z,5.20
2022-12-01T19:06:31.821Z,5.10
2022-12-01T19:09:01.638Z,5.20
2022-12-01T19:11:31.910Z,5.10
2022-12-01T19:14:00.208Z,4.90
2022-12-01T19:16:28.810Z,4.70
2022-12-01T19:18:57.058Z,4.50
2022-12-01T19:21:26.175Z,4.40
2022-12-01T19:23:54.944Z,4.40
2022-12-01T19:26:25.579Z,4.40
2022-12-01T19:28:56.425Z,4.40
2022-12-01T19:31:27.804Z,4.40
2022-12-01T19:33:56.552Z,4.40
2022-12-01T19:36:27.688Z,4.30
2022-12-01T19:38:58.220Z,4.30
2022-12-01T19:41:27.037Z,4.30
2022-12-01T19:43:57.480Z,4.20
2022-12-01T19:46:27.558Z,4.30
2022-12-01T19:48:57.474Z,4.30
2022-12-01T19:51:28.933Z,4.50
2022-12-01T19:53:57.974Z,4.60
2022-12-01T19:56:26.601Z,4.60
2022-12-01T19:58:57.028Z,4.90
2022-12-01T20:01:25.689Z,4.90
2022-12-01T20:03:55.756Z,4.80
2022-12-01T20:06:26.399Z,4.70
2022-12-01T20:08:56.830Z,4.60
2022-12-01T20:11:25.889Z,4.40
2022-12-01T20:13:54.883Z,4.40
2022-12-01T20:16:26.388Z,4.60
2022-12-01T20:18:55.946Z,4.70
2022-12-01T20:21:26.303Z,4.60
2022-12-01T20:23:58.334Z,4.60
2022-12-01T20:26:30.725Z,4.50
2022-12-01T20:29:02.584Z,4.60
2022-12-01T20:31:33.487Z,4.60
2022-12-01T20:34:05.066Z,4.70
2022-12-01T20:36:33.751Z,4.90
2022-12-01T20:39:02.061Z,5.10
2022-12-01T20:41:30.406Z,5.30
2022-12-01T20:44:02.422Z,5.40
2022-12-01T20:46:35.664Z,5.40
2022-12-01T20:49:04.403Z,5.40
2022-12-01T20:51:33.580Z,5.40
2022-12-01T20:56:50.925Z,4.90
2022-12-01T20:59:19.226Z,4.90
2022-12-01T21:01:49.089Z,4.50
2022-12-01T21:04:17.373Z,4.40
2022-12-01T21:06:45.987Z,4.60
2022-12-01T21:09:15.118Z,4.40
2022-12-01T21:12:07.284Z,4.40
2022-12-01T21:14:38.427Z,4.50
2022-12-01T21:17:19.016Z,4.40
2022-12-01T21:19:54.036Z,4.40
2022-12-01T21:22:22.830Z,4.30
2022-12-01T21:24:53.298Z,4.20
2022-12-01T21:27:21.757Z,4.30
2022-12-01T21:29:51.078Z,4.20
2022-12-01T21:32:28.286Z,4.20
2022-12-01T21:35:01.609Z,4.20
2022-12-01T21:37:30.109Z,4.20
2022-12-01T21:39:58.700Z,4.10
2022-12-01T21:42:28.707Z,4.20
2022-12-01T21:44:57.935Z,4.20
2022-12-01T21:47:31.243Z,4.20
2022-12-01T21:50:04.927Z,4.30
2022-12-01T21:52:41.094Z,4.40
2022-12-01T21:55:39.555Z,4.40
2022-12-01T21:58:25.669Z,4.60
2022-12-01T22:00:55.343Z,4.80
2022-12-01T22:03:30.304Z,4.90
2022-12-01T22:06:28.164Z,5.00
2022-12-01T22:08:52.019Z,5.20
2022-12-01T22:11:23.191Z,5.30
2022-12-01T22:13:55.826Z,5.30
2022-12-01T22:16:30.214Z,5.20
2022-12-01T22:19:01.835Z,5.10
2022-12-01T22:21:35.280Z,4.90
2022-12-01T22:24:22.581Z,4.30
2022-12-01T22:26:53.967Z,4.20
2022-12-01T22:29:29.462Z,4.10
2022-12-01T22:32:35.609Z,4.00
2022-12-01T22:35:21.908Z,4.00
2022-12-01T22:37:52.416Z,4.00
2022-12-01T22:40:39.490Z,4.20
2022-12-01T22:43:43.427Z,4.10
2022-12-01T22:46:26.723Z,4.30
2022-12-01T22:48:56.919Z,4.20
2022-12-01T22:51:43.429Z,4.20
2022-12-01T22:54:31.274Z,4.00
2022-12-01T22:57:19.586Z,4.00
2022-12-01T22:59:48.413Z,4.00
2022-12-01T23:02:22.430Z,4.10
2022-12-01T23:04:54.198Z,4.00
2022-12-01T23:07:46.002Z,3.80
2022-12-01T23:10:18.122Z,3.80
2022-12-01T23:12:47.807Z,3.70
2022-12-01T23:15:31.802Z,3.70
2022-12-01T23:18:06.745Z,3.80
2022-12-01T23:20:35.856Z,3.90
2022-12-01T23:23:12.011Z,4.00
2022-12-01T23:25:41.791Z,4.10
2022-12-01T23:28:11.741Z,4.40
2022-12-01T23:30:42.888Z,4.30
2022-12-01T23:33:17.484Z,4.10
2022-12-01T23:35:53.096Z,4.00
2022-12-01T23:38:25.360Z,4.00
2022-12-01T23:40:56.773Z,3.90
2022-12-01T23:43:28.286Z,4.00
2022-12-01T23:46:04.999Z,4.10
2022-12-01T23:48:38.399Z,4.00
2022-12-01T23:51:15.403Z,4.00
2022-12-01T23:53:45.176Z,4.10
2022-12-01T23:56:17.815Z,4.10
2022-12-01T23:58:46.407Z,4.20
